Time;durP1;ratioP1;P1;durP2;ratioP2;P2;SDS_P1;SDS_P2;PMS_P1;PMS_P2;Temp;Humidity;BMP_temperature;BMP_pressure;BME280_temperature;BME280_humidity;BME280_pressure;Samples;Min_cycle;Max_cycle;Signal;HPM_P1;HPM_P2
2021/11/17 02:27:18;;;;;;;42.20;21.02;;;13.90;88.00;;;;;;4177107;28;20156;-58
2021/11/17 02:29:55;;;;;;;41.80;21.33;;;13.90;88.10;;;;;;4183580;28;20044;-58
2021/11/17 02:32:30;;;;;;;42.83;19.13;;;13.80;88.10;;;;;;4193027;28;20045;-57
2021/11/17 02:35:17;;;;;;;41.72;20.20;;;13.90;88.10;;;;;;4193199;28;20410;-57
2021/11/17 02:37:52;;;;;;;42.67;21.30;;;13.90;88.00;;;;;;4177242;28;20059;-59
2021/11/17 02:40:31;;;;;;;45.03;20.33;;;13.90;88.00;;;;;;4187566;28;20050;-59
2021/11/17 02:43:13;;;;;;;43.00;21.33;;;13.80;87.80;;;;;;4192970;28;20151;-58
2021/11/17 02:45:49;;;;;;;41.00;20.20;;;13.80;87.70;;;;;;4193100;28;20039;-58
2021/11/17 02:48:32;;;;;;;43.13;20.33;;;13.80;87.90;;;;;;4191622;28;20127;-59
2021/11/17 02:51:20;;;;;;;40.58;19.27;;;13.80;87.80;;;;;;4176402;28;20068;-59
2021/11/17 02:54:04;;;;;;;41.60;19.42;;;13.80;87.90;;;;;;4176235;28;20045;-58
2021/11/17 02:56:41;;;;;;;43.42;20.48;;;13.80;88.10;;;;;;4189996;28;20127;-59
2021/11/17 02:59:43;;;;;;;40.30;19.35;;;13.80;88.90;;;;;;4177006;28;20489;-59
2021/11/17 03:02:32;;;;;;;40.78;19.25;;;13.80;87.90;;;;;;4176433;28;20052;-59
2021/11/17 03:05:22;;;;;;;42.75;21.50;;;13.80;87.90;;;;;;4176148;28;20048;-59
2021/11/17 03:07:59;;;;;;;41.72;20.15;;;13.80;88.00;;;;;;4176285;28;20051;-59
2021/11/17 03:10:38;;;;;;;43.95;20.42;;;13.80;88.10;;;;;;4187899;28;20052;-59
2021/11/17 03:13:10;;;;;;;42.45;20.65;;;13.80;88.10;;;;;;4192616;28;20131;-57
2021/11/17 03:15:54;;;;;;;39.67;20.00;;;13.80;88.10;;;;;;4192220;28;20052;-60
2021/11/17 03:18:28;;;;;;;40.67;19.30;;;13.80;87.90;;;;;;4186555;28;20055;-59
2021/11/17 03:21:09;;;;;;;40.05;18.80;;;13.80;88.00;;;;;;4192941;28;20048;-60
2021/11/17 03:23:48;;;;;;;38.38;19.27;;;13.80;88.10;;;;;;4192243;28;20044;-59
2021/11/17 03:26:26;;;;;;;39.22;19.52;;;13.80;88.20;;;;;;4192666;28;20052;-59
2021/11/17 03:29:15;;;;;;;35.25;17.50;;;13.80;88.10;;;;;;4190160;28;20098;-59
2021/11/17 03:32:01;;;;;;;37.63;18.70;;;13.70;88.10;;;;;;4192419;28;20037;-59
2021/11/17 03:34:49;;;;;;;38.38;19.05;;;13.70;88.10;;;;;;4176016;28;20190;-59
2021/11/17 03:37:30;;;;;;;39.78;19.58;;;13.70;88.00;;;;;;4191151;28;20048;-58
2021/11/17 03:40:24;;;;;;;34.28;17.42;;;13.70;88.20;;;;;;4175500;28;20044;-58
2021/11/17 03:43:15;;;;;;;34.67;17.77;;;13.70;88.20;;;;;;4175739;28;20052;-59
2021/11/17 03:45:48;;;;;;;34.38;17.42;;;13.70;88.20;;;;;;4158455;28;20484;-58
2021/11/17 03:48:29;;;;;;;37.80;18.55;;;13.70;88.50;;;;;;4192162;28;20056;-58
2021/11/17 03:51:07;;;;;;;37.78;20.45;;;13.70;88.40;;;;;;4180346;28;20080;-58
2021/11/17 03:53:46;;;;;;;42.60;19.20;;;13.70;88.20;;;;;;4174776;28;20503;-58
2021/11/17 03:56:26;;;;;;;36.13;19.40;;;13.70;88.10;;;;;;4174856;28;20048;-58
2021/11/17 03:59:02;;;;;;;36.60;17.92;;;13.70;88.10;;;;;;4174143;28;20072;-58
2021/11/17 04:01:48;;;;;;;36.20;18.73;;;13.70;88.20;;;;;;4175099;28;20075;-59
2021/11/17 04:04:32;;;;;;;38.15;19.02;;;13.70;88.30;;;;;;4175359;28;20055;-60
2021/11/17 04:07:22;;;;;;;34.47;17.65;;;13.70;88.40;;;;;;4174659;28;20056;-60
2021/11/17 04:10:04;;;;;;;37.40;20.73;;;13.70;88.20;;;;;;4174962;28;20049;-60
2021/11/17 04:12:51;;;;;;;35.95;17.95;;;13.70;88.60;;;;;;4175485;28;20048;-60
2021/11/17 04:15:40;;;;;;;35.45;18.00;;;13.70;88.30;;;;;;4186295;28;20492;-60
2021/11/17 04:18:13;;;;;;;37.75;18.15;;;13.70;88.60;;;;;;4191410;28;20075;-60
2021/11/17 04:20:54;;;;;;;35.42;17.45;;;13.60;88.60;;;;;;4188323;28;20131;-60
2021/11/17 04:23:35;;;;;;;39.08;18.48;;;13.70;88.60;;;;;;4160088;28;20069;-60
2021/11/17 04:26:18;;;;;;;39.83;19.40;;;13.60;88.70;;;;;;4178523;28;20052;-60
2021/11/17 04:28:57;;;;;;;40.78;18.95;;;13.60;88.80;;;;;;4191654;28;20062;-60
2021/11/17 04:31:43;;;;;;;37.38;17.48;;;13.60;88.80;;;;;;4182601;28;20068;-60
2021/11/17 04:34:31;;;;;;;38.33;19.45;;;13.60;88.70;;;;;;4190054;28;20044;-59
2021/11/17 04:37:18;;;;;;;43.55;20.58;;;13.60;88.50;;;;;;4191200;28;20060;-59
2021/11/17 04:40:05;;;;;;;44.40;21.05;;;13.60;88.70;;;;;;4184147;28;20045;-60
2021/11/17 04:42:47;;;;;;;37.20;18.10;;;13.60;88.60;;;;;;4191282;28;20097;-60
2021/11/17 04:45:25;;;;;;;44.17;19.55;;;13.60;88.80;;;;;;4191937;28;20432;-60
2021/11/17 04:48:09;;;;;;;38.40;18.92;;;13.60;89.00;;;;;;4174925;28;20084;-59
2021/11/17 04:51:08;;;;;;;39.83;18.40;;;13.60;88.80;;;;;;4174677;28;20045;-59
2021/11/17 04:53:45;;;;;;;33.55;18.15;;;13.60;88.70;;;;;;4185449;28;20045;-59
2021/11/17 04:56:20;;;;;;;37.35;19.67;;;13.60;88.80;;;;;;4189354;28;20468;-58
2021/11/17 04:59:10;;;;;;;39.03;19.60;;;13.60;88.90;;;;;;4175291;28;20060;-60
2021/11/17 05:01:57;;;;;;;36.28;18.10;;;13.60;88.80;;;;;;4174807;28;20449;-60
2021/11/17 05:04:32;;;;;;;38.42;18.13;;;13.60;88.90;;;;;;4177957;28;20084;-60
2021/11/17 05:07:09;;;;;;;32.92;17.80;;;13.60;88.90;;;;;;4183584;28;20040;-59
2021/11/17 05:09:42;;;;;;;34.75;17.15;;;13.60;88.80;;;;;;4180278;28;20051;-58
2021/11/17 05:12:17;;;;;;;33.42;16.25;;;13.50;88.80;;;;;;4177885;28;20059;-60
2021/11/17 05:14:49;;;;;;;39.53;19.20;;;13.50;88.80;;;;;;4177654;28;20136;-59
2021/11/17 05:17:25;;;;;;;34.05;16.40;;;13.50;89.00;;;;;;4185358;28;20050;-61
2021/11/17 05:19:57;;;;;;;30.48;17.02;;;13.50;89.00;;;;;;4193977;28;20037;-58
2021/11/17 05:22:38;;;;;;;33.83;17.67;;;13.50;89.00;;;;;;4177608;28;20442;-60
2021/11/17 05:25:17;;;;;;;34.53;18.63;;;13.50;89.10;;;;;;4177540;28;20450;-61
2021/11/17 05:28:00;;;;;;;34.08;17.25;;;13.50;89.20;;;;;;4194325;28;20139;-61
2021/11/17 05:30:52;;;;;;;35.13;19.38;;;13.50;89.30;;;;;;4194408;28;20056;-61
2021/11/17 05:33:23;;;;;;;;;;;13.50;89.10;;;;;;4182198;28;20044;-60
2021/11/17 05:36:01;;;;;;;36.38;18.20;;;13.50;89.20;;;;;;4193967;28;19973;-60
2021/11/17 05:38:33;;;;;;;39.05;19.15;;;13.50;89.50;;;;;;4194097;28;20567;-60
2021/11/17 05:41:08;;;;;;;35.95;18.88;;;13.50;89.40;;;;;;4192951;28;20131;-59
2021/11/17 05:43:45;;;;;;;36.30;20.00;;;13.50;90.00;;;;;;4182815;28;20484;-58
2021/11/17 05:46:19;;;;;;;36.85;19.25;;;13.50;89.10;;;;;;4177536;28;20061;-59
2021/11/17 05:48:53;;;;;;;41.45;20.45;;;13.50;89.30;;;;;;4181144;28;20128;-58
2021/11/17 05:51:31;;;;;;;40.15;20.45;;;13.50;89.40;;;;;;4185161;28;20045;-60
2021/11/17 05:54:12;;;;;;;40.83;21.35;;;13.50;89.10;;;;;;4177365;28;20049;-60
2021/11/17 05:56:41;;;;;;;;;;;13.50;89.10;;;;;;4177462;28;20485;-61
2021/11/17 05:59:19;;;;;;;40.30;20.10;;;13.50;89.30;;;;;;4183773;28;20486;-60
2021/11/17 06:01:53;;;;;;;45.22;21.58;;;13.50;89.40;;;;;;4181202;28;20053;-60
2021/11/17 06:04:15;;;;;;;41.33;21.25;;;13.50;89.30;;;;;;4177071;28;20049;-61
2021/11/17 06:06:38;;;;;;;46.70;21.33;;;13.50;89.40;;;;;;4177432;28;20055;-61
2021/11/17 06:08:59;;;;;;;46.42;21.30;;;13.50;89.40;;;;;;4183868;28;20131;-67
2021/11/17 06:11:27;;;;;;;46.50;23.42;;;13.50;89.50;;;;;;4182755;28;20132;-60
2021/11/17 06:13:49;;;;;;;47.33;24.48;;;13.50;89.40;;;;;;4176245;28;20057;-59
2021/11/17 06:16:11;;;;;;;47.88;22.58;;;13.50;89.50;;;;;;4177015;28;20143;-58
2021/11/17 06:18:37;;;;;;;49.35;24.00;;;13.50;89.30;;;;;;4178532;28;20065;-63
2021/11/17 06:21:01;;;;;;;50.85;24.10;;;13.50;89.30;;;;;;4177380;28;20431;-59
2021/11/17 06:23:30;;;;;;;47.38;26.20;;;13.50;89.30;;;;;;4177152;28;20052;-60
2021/11/17 06:25:55;;;;;;;55.53;26.77;;;13.50;89.10;;;;;;4176712;28;20424;-60
2021/11/17 06:28:23;;;;;;;48.25;23.92;;;13.50;89.10;;;;;;4177007;28;20049;-59
2021/11/17 06:30:45;;;;;;;52.53;27.02;;;13.50;89.20;;;;;;4176451;28;20049;-60
2021/11/17 06:33:08;;;;;;;52.58;25.45;;;13.50;90.00;;;;;;4175757;28;20045;-60
2021/11/17 06:35:30;;;;;;;48.42;23.45;;;13.40;89.30;;;;;;4176944;28;20052;-59
2021/11/17 06:37:53;;;;;;;48.35;22.90;;;13.40;89.50;;;;;;4177334;28;20156;-60
2021/11/17 06:40:17;;;;;;;48.63;26.00;;;13.40;90.30;;;;;;4177094;28;20053;-59
2021/11/17 06:42:42;;;;;;;47.85;24.92;;;13.40;89.70;;;;;;4177021;28;20041;-59
2021/11/17 06:45:08;;;;;;;53.03;26.02;;;13.40;89.70;;;;;;4176810;28;20041;-59
2021/11/17 06:47:30;;;;;;;52.60;24.73;;;13.40;89.70;;;;;;4180812;28;20130;-59
2021/11/17 06:49:53;;;;;;;56.95;29.10;;;13.50;90.20;;;;;;4191693;28;20476;-60
2021/11/17 06:52:15;;;;;;;52.88;26.23;;;13.50;90.20;;;;;;4193421;28;20057;-61
2021/11/17 06:54:38;;;;;;;55.40;26.20;;;13.50;90.10;;;;;;4178667;28;20129;-60
2021/11/17 06:57:00;;;;;;;47.25;21.83;;;13.50;90.50;;;;;;4169024;28;20049;-60
2021/11/17 06:59:22;;;;;;;51.28;25.60;;;13.50;90.00;;;;;;4168116;28;20061;-59
2021/11/17 07:01:46;;;;;;;52.30;23.92;;;13.50;90.00;;;;;;4172167;28;20067;-60
2021/11/17 07:04:09;;;;;;;52.22;24.20;;;13.50;90.00;;;;;;4180686;28;20060;-60
2021/11/17 07:06:31;;;;;;;52.28;26.17;;;13.50;90.00;;;;;;4176588;28;20040;-59
2021/11/17 07:08:54;;;;;;;52.78;26.38;;;13.50;89.90;;;;;;4177617;28;20079;-60
2021/11/17 07:11:16;;;;;;;51.97;23.38;;;13.50;89.90;;;;;;4176150;28;20075;-59
2021/11/17 07:13:38;;;;;;;57.55;28.13;;;13.50;89.90;;;;;;4177700;28;20052;-60
2021/11/17 07:16:02;;;;;;;57.90;27.00;;;13.50;90.00;;;;;;4180335;28;20044;-60
2021/11/17 07:18:26;;;;;;;50.63;26.10;;;13.40;89.80;;;;;;4186274;28;20476;-59
2021/11/17 07:20:48;;;;;;;52.15;25.48;;;13.50;89.90;;;;;;4182647;28;20114;-60
2021/11/17 07:23:11;;;;;;;47.15;23.83;;;13.50;89.90;;;;;;4175896;28;20353;-59
2021/11/17 07:25:33;;;;;;;53.42;25.80;;;13.40;89.90;;;;;;4179004;28;20053;-59
2021/11/17 07:27:57;;;;;;;54.75;26.63;;;13.50;90.00;;;;;;4176945;28;20056;-59
2021/11/17 07:30:24;;;;;;;49.88;21.80;;;13.50;90.10;;;;;;4177191;28;20489;-60
2021/11/17 07:32:46;;;;;;;58.00;28.30;;;13.50;90.10;;;;;;4181815;28;20052;-59
2021/11/17 07:35:11;;;;;;;56.60;26.77;;;13.50;90.10;;;;;;4176582;28;20072;-60
2021/11/17 07:37:33;;;;;;;58.28;27.02;;;13.50;90.10;;;;;;4176799;28;20049;-59
2021/11/17 07:39:55;;;;;;;55.70;25.48;;;13.50;90.10;;;;;;4159680;28;20142;-60
2021/11/17 07:42:17;;;;;;;58.17;28.80;;;13.50;90.10;;;;;;4174452;28;20075;-59
2021/11/17 07:44:41;;;;;;;57.22;28.33;;;13.50;90.00;;;;;;4165850;28;20049;-60
2021/11/17 07:47:04;;;;;;;50.67;24.90;;;13.50;89.90;;;;;;4172593;28;20489;-60
2021/11/17 07:49:28;;;;;;;54.90;26.83;;;13.40;89.80;;;;;;4175983;28;20163;-59
2021/11/17 07:51:51;;;;;;;56.35;27.33;;;13.40;90.00;;;;;;4179515;28;20051;-59
2021/11/17 07:54:14;;;;;;;55.80;28.15;;;13.40;90.00;;;;;;4189239;28;20052;-60
2021/11/17 07:56:39;;;;;;;57.40;26.50;;;13.40;90.00;;;;;;4175255;28;20480;-59
2021/11/17 07:59:01;;;;;;;53.65;25.70;;;13.40;90.00;;;;;;4176717;28;20045;-59
2021/11/17 08:01:23;;;;;;;56.42;28.27;;;13.40;89.90;;;;;;4191544;28;20048;-59
2021/11/17 08:03:49;;;;;;;54.72;27.80;;;13.40;90.00;;;;;;4191535;28;20056;-60
2021/11/17 08:06:14;;;;;;;51.25;24.58;;;13.40;90.00;;;;;;4175792;28;20114;-60
2021/11/17 08:08:38;;;;;;;58.38;27.60;;;13.40;90.10;;;;;;4181327;28;20048;-60
2021/11/17 08:11:04;;;;;;;58.42;28.63;;;13.40;90.00;;;;;;4191257;28;20056;-60
2021/11/17 08:13:27;;;;;;;50.40;27.23;;;13.40;90.40;;;;;;4189625;28;20094;-60
2021/11/17 08:15:49;;;;;;;51.78;27.00;;;13.40;90.10;;;;;;4190161;28;20143;-60
2021/11/17 08:18:11;;;;;;;53.03;26.40;;;13.50;90.50;;;;;;4175280;28;20049;-60
2021/11/17 08:20:34;;;;;;;51.28;26.15;;;13.50;90.00;;;;;;4186268;28;20049;-60
2021/11/17 08:22:58;;;;;;;46.92;22.67;;;13.60;89.70;;;;;;4174985;28;20048;-60
2021/11/17 08:25:24;;;;;;;52.38;24.75;;;13.70;89.30;;;;;;4186808;28;20048;-60
2021/11/17 08:27:47;;;;;;;53.83;26.38;;;13.80;89.00;;;;;;4191339;28;20052;-60
2021/11/17 08:30:11;;;;;;;48.15;23.08;;;13.80;88.80;;;;;;4191967;28;20040;-60
2021/11/17 08:32:33;;;;;;;51.15;25.80;;;13.80;88.50;;;;;;4187380;28;20052;-60
2021/11/17 08:34:55;;;;;;;52.28;25.67;;;13.90;88.40;;;;;;4183744;28;20124;-60
2021/11/17 08:37:17;;;;;;;47.85;26.25;;;13.90;88.20;;;;;;4187344;28;20044;-60
2021/11/17 08:39:41;;;;;;;46.08;25.02;;;13.90;88.00;;;;;;4175150;28;20049;-59
2021/11/17 08:42:05;;;;;;;51.35;25.70;;;13.90;88.00;;;;;;4175931;28;20041;-60
2021/11/17 08:44:28;;;;;;;55.35;26.45;;;13.90;88.00;;;;;;4175453;28;20069;-60
2021/11/17 08:46:50;;;;;;;48.95;25.52;;;13.90;88.00;;;;;;4182136;28;20055;-59
2021/11/17 08:49:13;;;;;;;51.28;25.80;;;13.90;88.20;;;;;;4190945;28;20094;-59
2021/11/17 08:51:36;;;;;;;47.80;25.77;;;14.00;88.50;;;;;;4191399;28;20079;-59
2021/11/17 08:54:00;;;;;;;48.42;23.95;;;14.10;88.20;;;;;;4191156;28;20067;-63
2021/11/17 08:56:22;;;;;;;54.50;26.05;;;14.40;87.50;;;;;;4188849;28;20040;-61
2021/11/17 08:58:45;;;;;;;50.15;24.90;;;14.70;86.30;;;;;;4174974;28;20122;-58
2021/11/17 09:01:09;;;;;;;47.92;24.05;;;15.00;84.90;;;;;;4172936;28;20040;-58
2021/11/17 09:03:32;;;;;;;50.70;25.33;;;15.40;83.40;;;;;;4178192;28;20049;-57
2021/11/17 09:05:57;;;;;;;49.78;24.13;;;15.80;82.00;;;;;;4175275;28;20049;-58
2021/11/17 09:08:21;;;;;;;46.72;22.35;;;16.10;80.60;;;;;;4175240;28;20072;-57
2021/11/17 09:10:49;;;;;;;43.53;23.00;;;16.30;79.20;;;;;;4174762;28;20045;-59
2021/11/17 09:13:11;;;;;;;49.47;23.40;;;16.50;78.20;;;;;;4174950;28;20044;-59
2021/11/17 09:15:37;;;;;;;50.13;23.92;;;16.60;77.60;;;;;;4176815;28;20048;-62
2021/11/17 09:18:10;;;;;;;42.38;22.23;;;16.70;77.20;;;;;;4186286;28;20059;-61
2021/11/17 09:20:32;;;;;;;43.97;23.55;;;16.70;77.20;;;;;;4191467;28;20044;-54
2021/11/17 09:22:55;;;;;;;45.50;24.95;;;16.70;77.20;;;;;;4187844;28;20137;-63
2021/11/17 09:25:20;;;;;;;41.22;21.85;;;16.60;77.40;;;;;;4175148;28;20424;-62
2021/11/17 09:27:43;;;;;;;43.20;21.98;;;16.60;77.40;;;;;;4185556;28;20079;-61
2021/11/17 09:30:07;;;;;;;44.63;22.15;;;16.60;77.70;;;;;;4187887;28;20075;-60
2021/11/17 09:32:31;;;;;;;40.25;22.35;;;16.60;78.00;;;;;;4189925;28;20940;-64
2021/11/17 09:34:53;;;;;;;44.25;24.13;;;16.50;78.10;;;;;;4174910;28;20388;-60
2021/11/17 09:37:16;;;;;;;40.55;21.83;;;16.50;79.20;;;;;;4175156;28;20045;-64
2021/11/17 09:39:40;;;;;;;42.63;22.13;;;16.40;78.70;;;;;;4175702;28;20439;-63
2021/11/17 09:42:03;;;;;;;43.13;21.17;;;16.40;78.90;;;;;;4175523;28;20048;-62
2021/11/17 09:44:29;;;;;;;38.00;21.80;;;16.30;79.10;;;;;;4191307;28;20048;-61
2021/11/17 09:46:52;;;;;;;37.45;19.58;;;16.20;79.30;;;;;;4190486;28;20052;-62
2021/11/17 09:49:27;;;;;;;37.22;18.83;;;16.20;79.70;;;;;;4191243;28;20135;-62
2021/11/17 09:51:51;;;;;;;35.15;19.55;;;16.10;80.00;;;;;;4194248;28;20048;-61
2021/11/17 09:54:19;;;;;;;32.58;18.08;;;16.10;80.20;;;;;;4191267;28;20523;-62
2021/11/17 09:56:45;;;;;;;38.08;19.33;;;16.00;80.50;;;;;;4182419;28;20146;-63
2021/11/17 09:59:10;;;;;;;35.25;19.05;;;15.90;80.80;;;;;;4193987;28;20044;-62
2021/11/17 10:01:36;;;;;;;33.28;18.00;;;15.90;81.00;;;;;;4194698;28;20058;-62
2021/11/17 10:04:03;;;;;;;32.85;17.17;;;15.80;81.30;;;;;;4192741;28;20055;-60
2021/11/17 10:06:54;;;;;;;34.08;16.95;;;15.80;81.70;;;;;;4194077;28;20076;-61
2021/11/17 10:09:47;;;;;;;38.47;17.98;;;15.70;82.30;;;;;;4191669;28;20044;-65
2021/11/17 10:14:53;;;;;;;32.58;17.35;;;15.80;82.60;;;;;;4177671;28;20048;-64
2021/11/17 10:17:42;;;;;;;36.00;18.75;;;15.80;82.30;;;;;;4176174;28;20385;-64
2021/11/17 10:20:10;;;;;;;35.75;17.35;;;16.00;82.00;;;;;;4192776;28;20063;-66
2021/11/17 10:22:33;;;;;;;32.70;17.13;;;16.00;81.70;;;;;;4189857;28;20053;-64
2021/11/17 10:25:07;;;;;;;33.00;16.70;;;16.10;81.30;;;;;;4178486;28;20565;-62
2021/11/17 10:27:32;;;;;;;33.13;17.23;;;16.10;81.20;;;;;;4184398;28;20060;-64
2021/11/17 10:29:57;;;;;;;30.80;16.75;;;16.20;81.00;;;;;;4189121;28;20041;-63
2021/11/17 10:32:23;;;;;;;33.63;16.77;;;16.30;80.70;;;;;;4186418;28;20091;-60
2021/11/17 10:34:53;;;;;;;29.08;15.75;;;16.40;80.30;;;;;;4189680;28;20044;-60
2021/11/17 10:37:32;;;;;;;32.47;16.80;;;16.40;80.80;;;;;;4193756;28;20048;-61
2021/11/17 10:39:55;;;;;;;30.65;16.38;;;16.50;79.90;;;;;;4194105;28;20135;-61
2021/11/17 10:42:33;;;;;;;27.50;15.38;;;16.40;79.90;;;;;;4180481;28;20040;-61
2021/11/17 10:44:58;;;;;;;29.83;16.23;;;16.40;80.10;;;;;;4176947;28;20072;-61
2021/11/17 10:47:38;;;;;;;33.72;15.20;;;16.30;80.30;;;;;;4177023;28;20056;-60
2021/11/17 10:50:15;;;;;;;24.63;13.20;;;16.30;80.70;;;;;;4177104;28;20040;-61
2021/11/17 10:52:42;;;;;;;25.80;12.32;;;16.20;80.90;;;;;;4175299;28;20052;-61
2021/11/17 10:55:17;;;;;;;23.42;12.35;;;16.20;81.10;;;;;;4176937;28;20515;-56
2021/11/17 10:57:39;;;;;;;22.63;11.20;;;16.30;81.00;;;;;;4180263;28;20049;-58
2021/11/17 11:00:04;;;;;;;24.50;11.93;;;16.40;81.10;;;;;;4192648;28;20492;-59
2021/11/17 11:02:28;;;;;;;24.27;11.50;;;16.30;81.00;;;;;;4190869;28;20049;-59
2021/11/17 11:04:54;;;;;;;19.60;9.60;;;16.30;81.00;;;;;;4186010;28;20423;-59
2021/11/17 11:07:20;;;;;;;19.65;9.07;;;16.20;81.10;;;;;;4192470;28;20064;-59
2021/11/17 11:09:54;;;;;;;23.35;8.80;;;16.20;81.30;;;;;;4191676;28;20099;-59
2021/11/17 11:12:20;;;;;;;19.98;9.35;;;16.20;81.40;;;;;;4180061;28;20071;-59
2021/11/17 11:14:47;;;;;;;20.60;8.95;;;16.20;81.80;;;;;;4180834;28;20076;-59
2021/11/17 11:17:31;;;;;;;20.52;8.48;;;16.20;82.20;;;;;;4193042;28;20044;-58
2021/11/17 11:20:13;;;;;;;24.10;9.55;;;16.10;82.40;;;;;;4191290;28;20044;-58
2021/11/17 11:23:12;;;;;;;21.63;9.52;;;16.10;82.60;;;;;;4191623;28;20056;-59
2021/11/17 11:25:44;;;;;;;20.10;8.15;;;16.10;82.90;;;;;;4189268;28;20076;-59
2021/11/17 11:28:28;;;;;;;26.10;8.00;;;16.00;83.30;;;;;;4177566;28;20041;-59
2021/11/17 11:30:51;;;;;;;17.92;7.28;;;16.00;83.60;;;;;;4180155;28;20103;-58
2021/11/17 11:33:26;;;;;;;17.98;7.05;;;15.90;83.90;;;;;;4192968;28;20542;-57
2021/11/17 11:36:35;;;;;;;27.40;8.30;;;15.90;84.20;;;;;;4192143;28;20044;-59
2021/11/17 11:39:43;;;;;;;23.27;6.13;;;15.80;84.40;;;;;;4175977;28;20045;-58
2021/11/17 11:42:42;;;;;;;20.17;6.38;;;15.80;84.70;;;;;;4185632;28;20049;-58
2021/11/17 11:45:49;;;;;;;20.00;5.00;;;15.70;84.90;;;;;;4175727;28;20052;-58
2021/11/17 11:48:13;;;;;;;15.13;4.47;;;15.80;85.30;;;;;;4121921;28;20070;-59
2021/11/17 11:50:51;;;;;;;20.70;4.40;;;15.80;85.30;;;;;;4168802;28;20075;-58
2021/11/17 11:53:16;;;;;;;16.42;3.92;;;15.80;84.80;;;;;;4186222;28;20456;-58
2021/11/17 11:55:58;;;;;;;18.70;4.55;;;15.90;84.70;;;;;;4175860;28;20045;-58
2021/11/17 11:58:39;;;;;;;18.40;3.58;;;15.90;84.20;;;;;;4175750;28;20052;-57
2021/11/17 12:01:05;;;;;;;15.93;3.00;;;15.90;85.10;;;;;;4188968;28;20381;-58
2021/11/17 12:03:30;;;;;;;12.90;2.75;;;15.90;84.30;;;;;;4175688;28;20056;-59
2021/11/17 12:06:04;;;;;;;15.90;3.38;;;15.90;84.20;;;;;;4175691;28;20052;-65
2021/11/17 12:08:29;;;;;;;17.80;3.72;;;15.90;83.70;;;;;;4183159;28;20569;-69
2021/11/17 12:11:07;;;;;;;17.25;3.53;;;15.80;84.20;;;;;;4181530;28;20052;-62
2021/11/17 12:13:32;;;;;;;14.20;3.67;;;15.80;84.20;;;;;;4189656;28;20044;-61
2021/11/17 12:16:01;;;;;;;18.77;3.28;;;15.80;84.20;;;;;;4191513;28;20573;-60
2021/11/17 12:18:23;;;;;;;19.67;3.22;;;15.70;84.20;;;;;;4204652;28;20051;-60
2021/11/17 12:20:49;;;;;;;17.30;3.38;;;15.70;84.40;;;;;;4191411;28;20052;-60
2021/11/17 12:23:20;;;;;;;16.15;2.90;;;15.60;84.20;;;;;;4175409;28;20049;-59
2021/11/17 12:26:01;;;;;;;18.88;2.95;;;15.60;84.20;;;;;;4175188;28;20045;-59
2021/11/17 12:28:24;;;;;;;15.32;2.83;;;15.60;84.50;;;;;;4191399;28;20072;-59
2021/11/17 12:30:54;;;;;;;12.38;2.33;;;15.60;85.00;;;;;;4191758;28;20055;-59
2021/11/17 12:33:20;;;;;;;16.80;3.30;;;15.50;84.60;;;;;;4191427;28;20127;-59
2021/11/17 12:36:16;;;;;;;20.13;3.00;;;15.50;84.70;;;;;;4190979;28;20059;-58
2021/11/17 12:38:39;;;;;;;13.07;3.25;;;15.50;85.00;;;;;;4176482;28;20068;-59
2021/11/17 12:41:06;;;;;;;14.50;3.55;;;15.50;85.60;;;;;;4174901;28;20069;-58
2021/11/17 12:43:32;;;;;;;16.05;3.90;;;15.40;85.20;;;;;;4175145;28;20456;-59
2021/11/17 12:46:04;;;;;;;19.83;4.10;;;15.50;85.60;;;;;;4175056;28;20063;-57
2021/11/17 12:48:31;;;;;;;16.08;2.72;;;15.40;85.10;;;;;;4191686;28;20059;-59
2021/11/17 12:50:57;;;;;;;16.48;3.95;;;15.40;84.70;;;;;;4191508;28;20049;-59
2021/11/17 12:53:23;;;;;;;18.52;3.53;;;15.40;85.90;;;;;;4191502;28;20057;-59
2021/11/17 12:55:48;;;;;;;15.73;3.92;;;15.40;85.00;;;;;;4191519;28;20048;-53
2021/11/17 12:58:22;;;;;;;26.77;3.58;;;15.30;84.70;;;;;;4174187;28;20052;-56
2021/11/17 13:00:53;;;;;;;14.65;3.25;;;15.30;84.90;;;;;;4174721;28;20076;-55
2021/11/17 13:03:31;;;;;;;16.42;3.03;;;15.30;84.70;;;;;;4175540;28;20068;-55
2021/11/17 13:06:19;;;;;;;20.45;3.58;;;15.30;84.50;;;;;;4175532;28;20059;-54
2021/11/17 13:08:41;;;;;;;12.85;3.03;;;15.20;84.60;;;;;;4169206;28;20049;-55
2021/11/17 13:11:11;;;;;;;11.85;3.45;;;15.20;85.60;;;;;;4174524;28;20052;-55
2021/11/17 13:13:44;;;;;;;11.68;3.00;;;15.20;85.50;;;;;;4175257;28;20052;-56
2021/11/17 13:16:11;;;;;;;14.10;3.15;;;15.20;85.10;;;;;;4178064;28;20060;-65
2021/11/17 13:18:37;;;;;;;13.55;2.90;;;15.20;85.80;;;;;;4182242;28;20053;-59
2021/11/17 13:21:12;;;;;;;15.70;2.67;;;15.10;85.60;;;;;;4175037;28;20453;-61
2021/11/17 13:23:41;;;;;;;14.20;3.58;;;15.10;85.30;;;;;;4184677;28;20041;-60
2021/11/17 13:26:16;;;;;;;10.65;2.72;;;15.10;85.70;;;;;;4178677;28;20041;-61
2021/11/17 13:28:40;;;;;;;13.15;3.13;;;15.10;86.00;;;;;;4179716;28;20045;-62
2021/11/17 13:31:42;;;;;;;20.38;3.13;;;15.10;87.80;;;;;;4178646;28;20049;-62
2021/11/17 13:34:09;;;;;;;9.88;2.92;;;15.10;87.50;;;;;;4173102;28;20045;-62
2021/11/17 13:36:39;;;;;;;10.88;3.25;;;15.10;88.50;;;;;;4186086;28;20044;-62
2021/11/17 13:39:01;;;;;;;13.65;2.90;;;15.10;89.00;;;;;;4185523;28;20068;-62
2021/11/17 13:41:33;;;;;;;;;;;15.00;89.60;;;;;;4182718;28;20131;-62
2021/11/17 13:43:55;;;;;;;13.13;4.60;;;15.00;88.70;;;;;;4177753;28;19928;-61
2021/11/17 13:46:20;;;;;;;19.80;3.22;;;15.00;90.00;;;;;;4184084;28;20041;-61
2021/11/17 13:48:44;;;;;;;10.38;2.92;;;15.00;89.70;;;;;;4187454;28;20056;-61
2021/11/17 13:51:08;;;;;;;13.85;2.58;;;15.00;89.80;;;;;;4182484;28;20037;-65
2021/11/17 13:53:30;;;;;;;9.30;2.20;;;15.00;90.20;;;;;;4185478;28;20502;-61
2021/11/17 13:55:55;;;;;;;11.02;2.75;;;15.00;90.10;;;;;;4192848;28;20063;-61
2021/11/17 13:58:17;;;;;;;22.42;3.95;;;15.00;89.60;;;;;;4194144;28;20036;-59
2021/11/17 14:00:41;;;;;;;11.00;2.47;;;15.00;90.10;;;;;;4194021;28;20102;-59
2021/11/17 14:03:04;;;;;;;11.10;2.30;;;15.00;90.10;;;;;;4184347;28;20041;-59
2021/11/17 14:05:26;;;;;;;13.52;3.28;;;15.00;90.50;;;;;;4177785;28;20131;-58
2021/11/17 14:07:51;;;;;;;10.68;2.35;;;15.00;90.00;;;;;;4180229;28;20045;-59
2021/11/17 14:10:14;;;;;;;11.85;2.10;;;15.00;89.90;;;;;;4188092;28;20114;-59
2021/11/17 14:12:36;;;;;;;9.30;2.55;;;15.00;89.70;;;;;;4188064;28;20079;-59
2021/11/17 14:14:58;;;;;;;18.45;2.70;;;15.00;89.50;;;;;;4193774;28;20569;-59
2021/11/17 14:17:21;;;;;;;8.90;2.17;;;14.90;89.00;;;;;;4192761;28;20060;-58
2021/11/17 14:19:43;;;;;;;10.63;2.75;;;15.00;88.90;;;;;;4176897;28;20134;-58
2021/11/17 14:22:05;;;;;;;10.65;2.30;;;14.90;88.10;;;;;;4175611;28;20059;-58
2021/11/17 14:24:29;;;;;;;10.32;2.15;;;14.90;87.60;;;;;;4186270;28;20470;-56
2021/11/17 14:26:54;;;;;;;9.30;2.33;;;14.90;88.10;;;;;;4192271;28;20041;-55
2021/11/17 14:29:18;;;;;;;20.98;2.65;;;14.90;88.80;;;;;;4191972;28;20155;-56
2021/11/17 14:31:43;;;;;;;9.90;2.38;;;14.90;89.30;;;;;;4193344;28;20052;-55
2021/11/17 14:34:07;;;;;;;10.35;2.38;;;14.90;88.60;;;;;;4184315;28;20072;-59
2021/11/17 14:36:33;;;;;;;11.40;2.67;;;14.90;88.30;;;;;;4183382;28;20076;-58
2021/11/17 14:38:55;;;;;;;11.88;2.45;;;14.90;87.10;;;;;;4190546;28;20106;-57
2021/11/17 14:41:19;;;;;;;8.98;2.22;;;14.90;87.70;;;;;;4183583;28;20045;-57
2021/11/17 14:43:41;;;;;;;10.38;2.13;;;14.90;87.10;;;;;;4176610;28;20045;-57
2021/11/17 14:46:04;;;;;;;13.85;2.78;;;14.90;88.20;;;;;;4176492;28;20037;-60
2021/11/17 14:48:26;;;;;;;11.05;2.35;;;14.90;89.20;;;;;;4176334;28;20107;-58
2021/11/17 14:50:50;;;;;;;14.73;2.63;;;14.90;89.30;;;;;;4185225;28;20059;-55
2021/11/17 14:53:31;;;;;;;11.85;4.30;;;14.90;90.00;;;;;;4175689;28;20045;-57
2021/11/17 14:55:53;;;;;;;10.38;3.15;;;14.90;90.10;;;;;;4176360;28;20053;-58
2021/11/17 14:58:17;;;;;;;12.80;2.33;;;14.90;89.80;;;;;;4177575;28;20057;-58
2021/11/17 15:00:43;;;;;;;9.02;2.33;;;14.90;90.10;;;;;;4178205;28;20056;-59
2021/11/17 15:03:10;;;;;;;6.93;1.75;;;14.90;90.10;;;;;;4176796;28;20068;-57
2021/11/17 15:05:33;;;;;;;8.05;2.25;;;14.90;90.40;;;;;;4176206;28;20076;-60
2021/11/17 15:07:55;;;;;;;12.70;3.53;;;14.90;90.40;;;;;;4188943;28;20049;-59
2021/11/17 15:10:18;;;;;;;10.13;2.30;;;14.90;90.30;;;;;;4193108;28;20102;-63
2021/11/17 15:12:43;;;;;;;6.95;1.75;;;14.90;90.20;;;;;;4191863;28;20045;-60
2021/11/17 15:15:10;;;;;;;11.45;2.83;;;14.90;90.60;;;;;;4189308;28;20044;-59
2021/11/17 15:17:32;;;;;;;9.80;2.00;;;14.90;91.20;;;;;;4190335;28;25681;-58